Skip Navigation Links Skip Navigation Links

Current Weather

Baton Rouge Metropolitan, Ryan Field, Baton Rouge, La.

For information only: do not use for flight planning or navigation.
Latest weather
Observation time Sunday, August 1, 2021 5:53 AM CDT
Local time Sunday, August 1, 2021 6:39 AM CDT
Flight conditions Visual Meteorological Conditions
Winds
Wind speed calm
Visibility 10 mi.
Sky condition
Ceiling unlimited
Sky clear
Temperature 75°F
Dewpoint 75°F
Altimeter 30.01 in.Hg
Derived measurements
Relative humidity 100%
Density altitude 1399 ft.
Sea-level pressure 30.01 in.Hg
Remarks
Fully automated report.
Automated weather observing station with precipitation discriminator.
METAR KBTR 011053Z AUTO 00000KT 10SM CLR 24/24 A3001 RMK AO2 SLP163 T02390239

Settings

Location code

InnerDrive.Weather 4.0.6770.0 Release CLR 4.0.30319.42000
Copyright ©2018 Inner Drive Technology. All rights reserved. Portions Copyright ©1986-2018 David Braverman.

Find weather

Site navigation


Skip Navigation Links

Place info

Page info

PayPal - The safer, easier way to pay online!

Return home.

Copyright ©2021 Inner Drive Technology. Purveyors of fine, hand-crafted computer software. Page printed 2021-08-01T11:39:16 UTC.